createdAt,value
2022-08-12T00:00:54.591Z,25.10
2022-08-12T00:03:59.287Z,25.10
2022-08-12T00:07:03.953Z,25.10
2022-08-12T00:10:08.437Z,25.00
2022-08-12T00:13:13.475Z,25.00
2022-08-12T00:16:18.026Z,25.00
2022-08-12T00:19:21.996Z,24.80
2022-08-12T00:22:26.999Z,24.80
2022-08-12T00:26:01.367Z,24.70
2022-08-12T00:28:56.136Z,24.70
2022-08-12T00:32:01.295Z,24.70
2022-08-12T00:35:09.025Z,24.70
2022-08-12T00:38:14.649Z,24.80
2022-08-12T00:41:19.126Z,24.70
2022-08-12T00:44:06.315Z,24.60
2022-08-12T00:46:54.660Z,24.40
2022-08-12T00:49:41.637Z,24.40
2022-08-12T00:52:27.728Z,24.50
2022-08-12T00:55:13.709Z,24.60
2022-08-12T00:58:02.831Z,24.60
2022-08-12T01:00:50.461Z,24.60
2022-08-12T01:03:57.606Z,24.50
2022-08-12T01:07:03.873Z,24.40
2022-08-12T01:10:09.217Z,24.40
2022-08-12T01:12:55.201Z,24.20
2022-08-12T01:16:07.597Z,24.30
2022-08-12T01:18:56.047Z,24.30
2022-08-12T01:21:41.812Z,24.30
2022-08-12T01:24:46.373Z,24.20
2022-08-12T01:27:34.847Z,24.30
2022-08-12T01:30:20.638Z,24.20
2022-08-12T01:33:13.220Z,24.10
2022-08-12T01:36:08.710Z,24.10
2022-08-12T01:38:59.248Z,23.90
2022-08-12T01:41:53.760Z,23.90
2022-08-12T01:44:40.099Z,23.90
2022-08-12T01:47:43.133Z,23.80
2022-08-12T01:51:00.438Z,24.00
2022-08-12T01:54:06.138Z,23.80
2022-08-12T01:57:59.576Z,23.60
2022-08-12T02:00:54.995Z,23.70
2022-08-12T02:04:00.150Z,23.80
2022-08-12T02:07:11.317Z,23.60
2022-08-12T02:10:51.314Z,23.40
2022-08-12T02:14:00.804Z,23.40
2022-08-12T02:16:56.602Z,23.40
2022-08-12T02:20:00.492Z,23.40
2022-08-12T02:22:47.348Z,23.40
2022-08-12T02:25:37.440Z,24.20
2022-08-12T02:28:24.403Z,23.10
2022-08-12T02:31:11.066Z,23.10
2022-08-12T02:33:58.829Z,23.00
2022-08-12T02:36:45.654Z,23.00
2022-08-12T02:39:34.008Z,23.00
2022-08-12T02:42:23.500Z,23.00
2022-08-12T02:45:10.403Z,23.10
2022-08-12T02:48:04.861Z,23.00
2022-08-12T02:50:52.627Z,22.90
2022-08-12T02:53:39.459Z,22.70
2022-08-12T02:56:28.198Z,22.70
2022-08-12T02:59:16.833Z,22.60
2022-08-12T03:02:09.069Z,22.70
2022-08-12T03:04:57.539Z,22.50
2022-08-12T03:07:59.467Z,22.70
2022-08-12T03:10:50.454Z,22.70
2022-08-12T03:13:39.953Z,22.50
2022-08-12T03:16:30.259Z,22.50
2022-08-12T03:19:21.836Z,22.30
2022-08-12T03:22:14.596Z,22.40
2022-08-12T03:25:03.801Z,22.40
2022-08-12T03:27:55.974Z,22.30
2022-08-12T03:30:44.156Z,22.50
2022-08-12T03:33:35.132Z,22.40
2022-08-12T03:36:21.624Z,22.50
2022-08-12T03:39:35.820Z,22.40
2022-08-12T03:42:33.091Z,22.40
2022-08-12T03:45:51.554Z,22.20
2022-08-12T03:48:59.437Z,22.00
2022-08-12T03:52:05.468Z,21.90
2022-08-12T03:55:09.361Z,21.80
2022-08-12T03:58:13.909Z,21.90
2022-08-12T04:00:59.522Z,21.80
2022-08-12T04:03:55.028Z,21.80
2022-08-12T04:06:45.259Z,21.70
2022-08-12T04:09:31.591Z,21.60
2022-08-12T04:12:35.598Z,21.20
2022-08-12T04:15:25.821Z,21.20
2022-08-12T04:18:13.481Z,21.20
2022-08-12T04:20:59.137Z,21.20
2022-08-12T04:23:48.364Z,21.30
2022-08-12T04:26:35.913Z,21.40
2022-08-12T04:29:23.331Z,21.60
2022-08-12T04:32:28.775Z,21.60
2022-08-12T04:35:14.648Z,21.50
2022-08-12T04:38:01.241Z,21.50
2022-08-12T04:40:47.566Z,21.40
2022-08-12T04:44:00.772Z,21.40
2022-08-12T04:46:39.313Z,21.40
2022-08-12T04:49:26.699Z,21.40
2022-08-12T04:52:12.505Z,21.60
2022-08-12T04:54:58.924Z,21.60
2022-08-12T04:57:44.461Z,21.60
2022-08-12T05:00:30.119Z,21.60
2022-08-12T05:03:15.744Z,21.50
2022-08-12T05:06:02.498Z,21.50
2022-08-12T05:08:49.469Z,21.60
2022-08-12T05:11:37.716Z,21.70
2022-08-12T05:14:40.092Z,21.90
2022-08-12T05:17:27.277Z,21.90
2022-08-12T05:20:17.331Z,21.80
2022-08-12T05:23:13.733Z,21.80
2022-08-12T05:26:01.136Z,21.90
2022-08-12T05:28:46.797Z,21.80
2022-08-12T05:31:42.494Z,21.80
2022-08-12T05:34:34.548Z,21.80
2022-08-12T05:37:24.061Z,21.80
2022-08-12T05:40:11.641Z,21.90
2022-08-12T05:42:57.326Z,22.00
2022-08-12T05:45:44.947Z,22.10
2022-08-12T05:48:31.067Z,22.10
2022-08-12T05:51:17.553Z,22.30
2022-08-12T05:54:03.698Z,22.30
2022-08-12T05:56:49.521Z,22.40
2022-08-12T05:59:35.081Z,22.50
2022-08-12T06:02:20.519Z,22.50
2022-08-12T06:05:16.828Z,22.60
2022-08-12T06:08:06.223Z,22.60
2022-08-12T06:10:52.046Z,22.70
2022-08-12T06:13:52.820Z,22.80
2022-08-12T06:16:39.815Z,22.80
2022-08-12T06:19:25.367Z,22.90
2022-08-12T06:22:31.079Z,23.00
2022-08-12T06:25:21.861Z,23.00
2022-08-12T06:28:22.750Z,23.40
2022-08-12T06:31:25.365Z,23.60
2022-08-12T06:35:25.467Z,23.60
2022-08-12T06:37:23.382Z,23.60
2022-08-12T06:40:13.897Z,23.60
2022-08-12T06:42:59.665Z,23.70
2022-08-12T06:45:47.410Z,23.70
2022-08-12T06:48:33.391Z,23.80
2022-08-12T06:51:20.706Z,23.90
2022-08-12T06:54:07.389Z,24.00
2022-08-12T06:57:04.340Z,23.90
2022-08-12T06:59:51.229Z,24.20
2022-08-12T07:02:37.311Z,24.20
2022-08-12T07:05:26.773Z,24.20
2022-08-12T07:08:13.425Z,24.20
2022-08-12T07:11:01.259Z,24.40
2022-08-12T07:14:11.283Z,24.40
2022-08-12T07:16:57.589Z,24.60
2022-08-12T07:19:45.087Z,24.70
2022-08-12T07:22:31.021Z,24.80
2022-08-12T07:25:41.058Z,24.80
2022-08-12T07:28:29.520Z,24.80
2022-08-12T07:31:17.361Z,24.90
2022-08-12T07:34:04.735Z,25.00
2022-08-12T07:36:51.284Z,25.00
2022-08-12T07:39:37.245Z,25.10
2022-08-12T07:42:37.134Z,25.20
2022-08-12T07:45:24.576Z,25.20
2022-08-12T07:48:10.262Z,25.20
2022-08-12T07:50:55.776Z,25.20
2022-08-12T07:53:54.844Z,25.30
2022-08-12T07:56:47.078Z,25.30
2022-08-12T07:59:34.073Z,25.40
2022-08-12T08:02:19.554Z,25.40
2022-08-12T08:05:12.578Z,25.40
2022-08-12T08:08:02.443Z,25.50
2022-08-12T08:10:50.185Z,25.50
2022-08-12T08:13:41.020Z,25.50
2022-08-12T08:16:26.509Z,25.50
2022-08-12T08:19:23.885Z,25.60
2022-08-12T08:22:10.555Z,25.50
2022-08-12T08:24:58.656Z,25.60
2022-08-12T08:27:46.810Z,25.60
2022-08-12T08:30:33.572Z,25.60
2022-08-12T08:33:24.713Z,25.70
2022-08-12T08:36:24.488Z,25.70
2022-08-12T08:39:12.844Z,25.70
2022-08-12T08:42:20.115Z,25.70
2022-08-12T08:45:13.057Z,25.80
2022-08-12T08:48:00.506Z,25.80
2022-08-12T08:50:46.263Z,25.80
2022-08-12T08:53:51.895Z,25.80
2022-08-12T08:56:43.866Z,25.80
2022-08-12T08:59:29.821Z,25.80
2022-08-12T09:02:15.592Z,25.90
2022-08-12T09:08:13.021Z,25.90
2022-08-12T09:12:07.333Z,25.90
2022-08-12T09:14:29.299Z,26.00
2022-08-12T09:17:21.455Z,26.00
2022-08-12T09:20:08.245Z,25.90
2022-08-12T09:22:55.631Z,26.00
2022-08-12T09:25:44.899Z,26.00
2022-08-12T09:32:06.938Z,26.10
2022-08-12T09:34:41.731Z,26.20
2022-08-12T09:37:28.729Z,26.10
2022-08-12T09:41:01.980Z,26.10
2022-08-12T09:44:01.180Z,26.10
2022-08-12T09:46:50.657Z,26.20
2022-08-12T09:49:42.007Z,26.20
2022-08-12T09:52:32.058Z,26.20
2022-08-12T09:56:07.155Z,26.30
2022-08-12T09:58:57.139Z,26.30
2022-08-12T10:02:43.030Z,26.40
2022-08-12T10:04:51.729Z,26.50
2022-08-12T10:07:40.210Z,26.50
2022-08-12T10:10:30.454Z,26.60
2022-08-12T10:13:41.632Z,26.60
2022-08-12T10:16:39.272Z,26.60
2022-08-12T10:19:36.271Z,26.70
2022-08-12T10:22:36.759Z,26.70
2022-08-12T10:26:34.379Z,26.70
2022-08-12T10:30:01.898Z,26.90
2022-08-12T10:32:56.328Z,26.90
2022-08-12T10:35:37.812Z,27.00
2022-08-12T10:38:37.443Z,27.00
2022-08-12T10:41:57.941Z,27.00
2022-08-12T10:44:46.887Z,27.00
2022-08-12T10:48:19.386Z,27.10
2022-08-12T10:50:56.710Z,27.10
2022-08-12T10:53:47.508Z,27.10
2022-08-12T10:56:35.335Z,27.10
2022-08-12T11:00:29.769Z,27.20
2022-08-12T11:04:25.125Z,27.30
2022-08-12T11:07:09.386Z,27.30
2022-08-12T11:08:43.021Z,27.40
2022-08-12T11:12:35.874Z,27.50
2022-08-12T11:14:49.516Z,27.60
2022-08-12T11:17:52.502Z,27.60
2022-08-12T11:20:39.097Z,27.70
2022-08-12T11:23:36.534Z,27.80
2022-08-12T11:26:23.317Z,27.80
2022-08-12T11:29:22.793Z,27.80
2022-08-12T11:32:09.112Z,27.80
2022-08-12T11:34:55.483Z,27.90
2022-08-12T11:37:59.403Z,28.00
2022-08-12T11:40:45.702Z,28.00
2022-08-12T11:43:33.171Z,28.10
2022-08-12T11:46:37.778Z,28.10
2022-08-12T11:49:30.496Z,28.20
2022-08-12T11:52:54.953Z,28.20
2022-08-12T11:55:24.340Z,28.20
2022-08-12T11:59:02.935Z,28.30
2022-08-12T12:02:01.207Z,28.40
2022-08-12T12:04:29.170Z,28.40
2022-08-12T12:07:15.363Z,28.50
2022-08-12T12:10:01.537Z,28.60
2022-08-12T12:12:49.897Z,28.60
2022-08-12T12:15:37.378Z,28.70
2022-08-12T12:18:31.104Z,28.70
2022-08-12T12:21:17.251Z,28.80
2022-08-12T12:24:02.845Z,28.80
2022-08-12T12:27:00.119Z,28.90
2022-08-12T12:30:17.688Z,28.90
2022-08-12T12:32:53.732Z,29.00
2022-08-12T12:36:18.609Z,29.10
2022-08-12T12:38:46.119Z,29.20
2022-08-12T12:42:54.392Z,29.20
2022-08-12T12:44:42.058Z,29.30
2022-08-12T12:47:51.636Z,29.40
2022-08-12T12:50:45.555Z,29.50
2022-08-12T12:54:06.982Z,29.60
2022-08-12T12:56:50.059Z,29.70
2022-08-12T12:59:57.001Z,29.80
2022-08-12T13:02:55.716Z,30.00
2022-08-12T13:05:44.330Z,30.10
2022-08-12T13:08:39.288Z,30.30
2022-08-12T13:11:41.192Z,30.40
2022-08-12T13:14:31.112Z,30.50
2022-08-12T13:17:21.363Z,30.70
2022-08-12T13:20:07.814Z,30.90
2022-08-12T13:22:53.529Z,31.00
2022-08-12T13:25:41.581Z,31.10
2022-08-12T13:28:31.072Z,31.30
2022-08-12T13:31:16.649Z,31.40
2022-08-12T13:34:32.131Z,31.50
2022-08-12T13:37:10.223Z,31.60
2022-08-12T13:39:55.878Z,31.70
2022-08-12T13:42:41.624Z,31.90
2022-08-12T13:45:34.315Z,32.00
2022-08-12T13:48:19.998Z,32.10
2022-08-12T13:51:06.050Z,32.30
2022-08-12T13:53:59.156Z,32.40
2022-08-12T13:56:50.142Z,32.50
2022-08-12T13:59:48.445Z,32.60
2022-08-12T14:02:40.948Z,32.70
2022-08-12T14:05:31.246Z,32.80
2022-08-12T14:08:24.211Z,32.90
2022-08-12T14:11:12.378Z,33.00
2022-08-12T14:14:03.691Z,33.10
2022-08-12T14:16:58.266Z,33.10
2022-08-12T14:20:03.682Z,33.20
2022-08-12T14:22:51.533Z,33.30
2022-08-12T14:25:40.693Z,33.40
2022-08-12T14:28:28.762Z,33.40
2022-08-12T14:31:18.432Z,32.80
2022-08-12T14:34:05.093Z,33.60
2022-08-12T14:36:51.911Z,33.60
2022-08-12T14:39:39.144Z,33.70
2022-08-12T14:42:26.004Z,33.80
2022-08-12T14:45:12.630Z,33.80
2022-08-12T14:47:58.984Z,33.90
2022-08-12T14:51:02.776Z,33.90
2022-08-12T14:55:18.251Z,34.00
2022-08-12T14:57:20.061Z,34.00
2022-08-12T15:00:23.226Z,34.00
2022-08-12T15:03:14.403Z,34.00
2022-08-12T15:06:04.802Z,34.10
2022-08-12T15:08:51.362Z,34.10
2022-08-12T15:11:48.758Z,34.10
2022-08-12T15:14:42.926Z,34.10
2022-08-12T15:17:38.251Z,34.10
2022-08-12T15:20:37.442Z,34.20
2022-08-12T15:23:29.236Z,34.20
2022-08-12T15:26:20.558Z,34.20
2022-08-12T15:29:11.660Z,34.20
2022-08-12T15:32:01.923Z,34.20
2022-08-12T15:34:49.850Z,34.10
2022-08-12T15:38:08.039Z,34.10
2022-08-12T15:40:48.659Z,34.10
2022-08-12T15:43:51.317Z,34.10
2022-08-12T15:46:40.591Z,34.10
2022-08-12T15:49:27.597Z,34.00
2022-08-12T15:52:29.770Z,33.90
2022-08-12T15:55:16.756Z,33.90
2022-08-12T15:58:04.558Z,33.90
2022-08-12T16:00:52.745Z,33.00
2022-08-12T16:03:45.363Z,33.80
2022-08-12T16:07:04.242Z,33.70
2022-08-12T16:10:06.120Z,33.60
2022-08-12T16:12:56.631Z,33.60
2022-08-12T16:15:51.126Z,33.50
2022-08-12T16:18:47.220Z,33.40
2022-08-12T16:21:50.444Z,33.20
2022-08-12T16:24:43.577Z,32.90
2022-08-12T16:27:38.629Z,32.50
2022-08-12T16:30:32.808Z,32.10
2022-08-12T16:33:19.613Z,31.80
2022-08-12T16:36:18.957Z,31.50
2022-08-12T16:39:04.799Z,31.30
2022-08-12T16:41:50.627Z,30.70
2022-08-12T16:44:37.476Z,31.10
2022-08-12T16:47:23.690Z,31.10
2022-08-12T16:50:14.503Z,30.90
2022-08-12T16:53:03.452Z,30.60
2022-08-12T16:55:55.832Z,30.40
2022-08-12T16:58:42.000Z,30.30
2022-08-12T17:01:36.801Z,30.20
2022-08-12T17:04:24.398Z,30.20
2022-08-12T17:07:16.737Z,30.10
2022-08-12T17:10:02.741Z,30.10
2022-08-12T17:12:48.185Z,30.10
2022-08-12T17:15:56.960Z,30.20
2022-08-12T17:18:57.039Z,30.30
2022-08-12T17:22:01.989Z,30.30
2022-08-12T17:24:54.585Z,30.40
2022-08-12T17:27:57.303Z,30.40
2022-08-12T17:30:44.755Z,30.30
2022-08-12T17:33:33.661Z,30.30
2022-08-12T17:36:23.778Z,30.30
2022-08-12T17:39:12.771Z,30.30
2022-08-12T17:41:58.440Z,30.30
2022-08-12T17:44:44.077Z,30.30
2022-08-12T17:48:01.234Z,30.30
2022-08-12T17:50:40.454Z,30.30
2022-08-12T17:53:27.528Z,30.30
2022-08-12T17:56:31.797Z,30.30
2022-08-12T17:59:47.218Z,30.20
2022-08-12T18:02:30.060Z,30.20
2022-08-12T18:05:22.976Z,30.20
2022-08-12T18:08:12.344Z,30.20
2022-08-12T18:12:03.000Z,30.20
2022-08-12T18:14:27.739Z,30.10
2022-08-12T18:17:17.838Z,30.10
2022-08-12T18:20:07.614Z,30.10
2022-08-12T18:22:56.254Z,30.10
2022-08-12T18:26:14.311Z,30.10
2022-08-12T18:29:03.056Z,30.00
2022-08-12T18:31:59.917Z,30.00
2022-08-12T18:34:48.226Z,30.00
2022-08-12T18:37:42.617Z,30.00
2022-08-12T18:40:48.001Z,30.00
2022-08-12T18:43:57.597Z,29.90
2022-08-12T18:46:46.936Z,29.90
2022-08-12T18:49:39.448Z,29.90
2022-08-12T18:52:33.056Z,29.90
2022-08-12T18:55:19.116Z,29.90
2022-08-12T18:58:09.981Z,29.90
2022-08-12T19:00:55.858Z,29.80
2022-08-12T19:03:42.352Z,29.80
2022-08-12T19:06:36.277Z,29.80
2022-08-12T19:09:39.108Z,29.80
2022-08-12T19:13:03.423Z,29.70
2022-08-12T19:15:54.726Z,29.70
2022-08-12T19:18:44.929Z,29.70
2022-08-12T19:21:31.924Z,29.60
2022-08-12T19:24:42.236Z,30.50
2022-08-12T19:27:32.443Z,29.60
2022-08-12T19:30:45.351Z,29.60
2022-08-12T19:33:33.459Z,29.60
2022-08-12T19:36:25.377Z,29.50
2022-08-12T19:39:15.159Z,29.50
2022-08-12T19:42:08.908Z,29.50
2022-08-12T19:45:04.518Z,29.50
2022-08-12T19:47:50.101Z,29.30
2022-08-12T19:50:37.149Z,29.10
2022-08-12T19:53:24.189Z,28.90
2022-08-12T19:56:11.581Z,28.70
2022-08-12T19:59:18.649Z,28.50
2022-08-12T20:02:10.646Z,28.30
2022-08-12T20:05:25.523Z,28.10
2022-08-12T20:08:03.126Z,28.00
2022-08-12T20:10:53.148Z,27.90
2022-08-12T20:13:42.183Z,27.80
2022-08-12T20:16:51.155Z,27.80
2022-08-12T20:20:01.140Z,27.70
2022-08-12T20:22:42.049Z,27.70
2022-08-12T20:25:52.558Z,27.60
2022-08-12T20:28:36.724Z,27.60
2022-08-12T20:31:22.111Z,27.50
2022-08-12T20:34:07.641Z,27.40
2022-08-12T20:37:04.694Z,27.30
2022-08-12T20:39:55.913Z,27.20
2022-08-12T20:42:43.811Z,27.20
2022-08-12T20:45:44.870Z,27.10
2022-08-12T20:48:36.279Z,27.00
2022-08-12T20:51:22.236Z,27.00
2022-08-12T20:54:08.845Z,26.90
2022-08-12T20:56:54.715Z,26.90
2022-08-12T20:59:48.029Z,26.80
2022-08-12T21:02:35.243Z,26.80
2022-08-12T21:06:09.589Z,26.70
2022-08-12T21:08:45.501Z,26.60
2022-08-12T21:11:32.727Z,26.60
2022-08-12T21:14:19.190Z,26.50
2022-08-12T21:18:00.360Z,26.40
2022-08-12T21:20:33.333Z,26.30
2022-08-12T21:23:21.457Z,26.30
2022-08-12T21:26:11.318Z,26.20
2022-08-12T21:29:01.710Z,26.20
2022-08-12T21:32:39.410Z,26.10
2022-08-12T21:34:56.828Z,26.00
2022-08-12T21:37:43.319Z,26.10
2022-08-12T21:40:51.997Z,26.00
2022-08-12T21:43:44.975Z,25.90
2022-08-12T21:46:35.697Z,25.90
2022-08-12T21:49:54.200Z,25.80
2022-08-12T21:52:28.360Z,25.70
2022-08-12T21:55:20.612Z,25.70
2022-08-12T21:58:11.261Z,25.60
2022-08-12T22:00:57.498Z,25.60
2022-08-12T22:04:11.211Z,25.60
2022-08-12T22:06:59.187Z,25.50
2022-08-12T22:09:45.017Z,25.40
2022-08-12T22:12:34.706Z,25.40
2022-08-12T22:15:23.688Z,25.30
2022-08-12T22:18:09.434Z,25.20
2022-08-12T22:20:55.455Z,25.20
2022-08-12T22:24:04.100Z,25.20
2022-08-12T22:26:48.501Z,25.10
2022-08-12T22:29:54.769Z,25.10
2022-08-12T22:32:49.529Z,25.00
2022-08-12T22:35:55.592Z,25.00
2022-08-12T22:38:46.204Z,24.90
2022-08-12T22:41:56.969Z,24.90
2022-08-12T22:45:15.969Z,24.90
2022-08-12T22:48:01.959Z,24.90
2022-08-12T22:50:48.808Z,24.80
2022-08-12T22:53:36.751Z,24.60
2022-08-12T22:56:30.897Z,24.60
2022-08-12T22:59:17.207Z,24.50
2022-08-12T23:02:07.749Z,24.50
2022-08-12T23:04:58.381Z,24.50
2022-08-12T23:07:58.873Z,24.40
2022-08-12T23:10:46.976Z,24.40
2022-08-12T23:13:49.077Z,24.40
2022-08-12T23:16:42.194Z,24.30
2022-08-12T23:19:36.269Z,24.30
2022-08-12T23:22:35.772Z,24.20
2022-08-12T23:25:22.919Z,24.20
2022-08-12T23:28:37.128Z,24.20
2022-08-12T23:32:01.868Z,24.10
2022-08-12T23:34:34.417Z,24.00
2022-08-12T23:37:20.420Z,24.00
2022-08-12T23:40:26.211Z,23.90
2022-08-12T23:43:12.440Z,23.90
2022-08-12T23:46:00.300Z,23.90
2022-08-12T23:48:48.017Z,23.80
2022-08-12T23:51:37.823Z,23.80
2022-08-12T23:54:33.107Z,23.70
2022-08-12T23:57:26.578Z,23.70
